Time;durP1;ratioP1;P1;durP2;ratioP2;P2;SDS_P1;SDS_P2;PMS_P1;PMS_P2;Temp;Humidity;BMP_temperature;BMP_pressure;BME280_temperature;BME280_humidity;BME280_pressure;Samples;Min_cycle;Max_cycle;Signal;HPM_P1;HPM_P2
2022/01/20 00:05:53;;;;;;;1999.90;999.90;;;;;;;6.05;77.98;100750.97;15704401;28;20568;-81
2022/01/20 00:29:19;;;;;;;1999.90;999.90;;;;;;;6.31;75.83;100734.72;15689113;28;20040;-82
2022/01/20 00:44:40;;;;;;;1999.90;999.90;;;;;;;6.56;74.14;100759.22;15676307;28;20303;-82
2022/01/20 00:52:14;;;;;;;1999.90;999.90;;;;;;;6.55;72.63;100765.88;15688217;28;20041;-81
2022/01/20 00:59:48;;;;;;;;;;;;;;;6.24;72.03;100779.44;15641224;28;20043;-82
2022/01/20 01:15:15;;;;;;;1999.90;999.90;;;;;;;5.92;71.07;100776.66;15617066;28;20071;-82
2022/01/20 01:22:48;;;;;;;1999.90;999.90;;;;;;;5.92;69.76;100774.69;15618380;28;20527;-81
2022/01/20 01:30:48;;;;;;;1999.90;999.90;;;;;;;5.82;69.48;100780.34;15635573;28;20033;-82
2022/01/20 01:38:35;;;;;;;1999.90;999.90;;;;;;;5.92;68.92;100785.78;15675373;28;20033;-82
2022/01/20 01:46:11;;;;;;;1999.90;999.90;;;;;;;5.59;68.50;100807.00;15622249;28;20041;-82
2022/01/20 01:53:45;;;;;;;1999.90;999.90;;;;;;;5.51;68.63;100802.13;15606854;28;20069;-84
2022/01/20 02:01:19;;;;;;;1999.90;999.90;;;;;;;5.56;66.96;100779.09;15621262;28;20219;-83
2022/01/20 02:09:02;;;;;;;1999.90;999.90;;;;;;;5.37;66.33;100754.16;15601625;28;20045;-82
2022/01/20 02:24:28;;;;;;;1999.90;999.90;;;;;;;5.18;68.86;100785.38;15636638;28;20028;-82
2022/01/20 02:32:01;;;;;;;1999.90;999.90;;;;;;;4.84;68.49;100784.69;15653758;28;20064;-82
2022/01/20 02:47:26;;;;;;;1999.90;999.90;;;;;;;4.70;67.28;100769.91;15718331;28;20040;-80
2022/01/20 02:55:00;;;;;;;1999.90;999.90;;;;;;;4.60;67.92;100788.25;15666915;28;20049;-83
2022/01/20 03:02:33;;;;;;;1999.90;999.90;;;;;;;4.50;68.42;100757.13;15646420;28;20049;-81
2022/01/20 03:10:09;;;;;;;1999.90;999.90;;;;;;;4.54;68.05;100761.75;15646376;28;20115;-82
2022/01/20 03:17:44;;;;;;;1999.90;999.90;;;;;;;4.43;67.83;100732.59;15645293;28;20041;-80
2022/01/20 03:25:19;;;;;;;1999.90;999.90;;;;;;;4.57;68.14;100735.47;15648048;28;20136;-81
2022/01/20 03:32:53;;;;;;;1999.90;999.90;;;;;;;4.40;68.28;100707.50;15662805;28;20045;-80
2022/01/20 03:40:28;;;;;;;1999.90;999.90;;;;;;;4.59;67.86;100698.16;15590579;22;20054;-75
2022/01/20 03:48:09;;;;;;;1999.90;999.90;;;;;;;4.36;68.38;100693.41;15562016;28;20046;-75
2022/01/20 03:55:43;;;;;;;1999.90;999.90;;;;;;;4.55;68.63;100683.25;15520218;23;20045;-66
2022/01/20 04:03:21;;;;;;;1999.90;999.90;;;;;;;4.35;69.96;100683.47;15501161;28;20101;-66
2022/01/20 04:11:01;;;;;;;1999.90;999.90;;;;;;;4.93;68.99;100686.97;15500641;28;20129;-66
2022/01/20 04:18:34;;;;;;;1999.90;999.90;;;;;;;4.58;70.14;100681.84;15496911;28;20039;-64
2022/01/20 04:26:09;;;;;;;1999.90;999.90;;;;;;;4.71;72.56;100677.56;15456130;28;20042;-64
2022/01/20 04:33:41;;;;;;;1999.90;999.90;;;;;;;4.60;74.00;100672.16;15464331;28;20050;-64
2022/01/20 04:41:15;;;;;;;1999.90;999.90;;;;;;;4.52;73.66;100694.91;15556223;23;20046;-63
2022/01/20 04:49:04;;;;;;;1999.90;999.90;;;;;;;4.63;73.55;100743.44;15603935;28;20045;-63
2022/01/20 05:04:30;;;;;;;1999.90;999.90;;;;;;;2.65;76.89;100764.03;15481060;28;20046;-64
2022/01/20 05:12:23;;;;;;;1999.90;999.90;;;;;;;3.00;76.01;100740.22;15464142;28;20467;-64
2022/01/20 05:19:56;;;;;;;1999.90;999.90;;;;;;;2.94;76.20;100753.22;15463776;28;20452;-64
2022/01/20 05:27:31;;;;;;;1999.90;999.90;;;;;;;3.01;75.69;100733.59;15463939;28;20046;-65
2022/01/20 05:35:04;;;;;;;1999.90;999.90;;;;;;;3.12;74.36;100737.94;15546814;28;20545;-64
2022/01/20 05:42:39;;;;;;;1999.90;999.90;;;;;;;3.11;73.28;100748.16;15600719;28;20321;-64
2022/01/20 05:50:18;;;;;;;1999.90;999.90;;;;;;;3.35;72.34;100737.31;15585012;28;20088;-65
2022/01/20 05:57:53;;;;;;;1999.90;999.90;;;;;;;3.39;72.01;100745.81;15600822;28;20072;-64
2022/01/20 06:05:26;;;;;;;1999.90;999.90;;;;;;;3.58;71.33;100773.59;15583333;28;20107;-65
2022/01/20 06:13:01;;;;;;;1999.90;999.90;;;;;;;3.33;71.29;100774.53;15583174;28;20042;-64
2022/01/20 06:20:34;;;;;;;1999.90;999.90;;;;;;;3.42;70.59;100778.34;15583026;28;20042;-64
2022/01/20 06:28:09;;;;;;;1999.90;999.90;;;;;;;3.50;66.92;100804.53;15582845;28;20329;-64
2022/01/20 06:35:42;;;;;;;1999.90;999.90;;;;;;;3.23;64.02;100814.03;15581817;28;20107;-66
2022/01/20 06:43:17;;;;;;;1999.90;999.90;;;;;;;3.31;60.27;100829.97;15581933;28;20533;-64
2022/01/20 06:50:50;;;;;;;1999.90;999.90;;;;;;;3.01;59.17;100854.88;15598172;28;20387;-65
2022/01/20 06:58:24;;;;;;;1999.90;999.90;;;;;;;2.86;58.92;100855.75;15598558;28;20128;-63
2022/01/20 07:05:57;;;;;;;1999.90;999.90;;;;;;;2.89;56.26;100889.09;15581601;28;20307;-62
2022/01/20 07:13:36;;;;;;;1999.90;999.90;;;;;;;2.92;55.83;100901.53;15580102;28;20061;-61
2022/01/20 07:21:08;;;;;;;1999.90;999.90;;;;;;;2.78;55.23;100930.72;15588902;28;20116;-64
2022/01/20 07:29:05;;;;;;;1999.90;999.90;;;;;;;2.87;54.24;100951.94;15582937;28;20076;-63
2022/01/20 07:36:38;;;;;;;1999.90;999.90;;;;;;;3.04;54.17;100979.25;15555372;28;20034;-67
2022/01/20 07:44:12;;;;;;;1999.90;999.90;;;;;;;3.37;54.19;100990.78;15571054;28;20133;-67
2022/01/20 07:52:06;;;;;;;1999.90;999.90;;;;;;;3.26;54.94;100973.44;15571968;28;20048;-68
2022/01/20 07:59:40;;;;;;;1999.90;999.90;;;;;;;3.29;54.10;100985.84;15546949;28;20058;-67
2022/01/20 08:07:15;;;;;;;1999.90;999.90;;;;;;;3.17;53.97;101005.44;15567050;28;20041;-67
2022/01/20 08:14:49;;;;;;;1999.90;999.90;;;;;;;3.61;53.06;101007.56;15590412;28;20071;-67
2022/01/20 08:22:34;;;;;;;1999.90;999.90;;;;;;;3.21;53.99;101019.47;15606507;28;20494;-68
2022/01/20 08:30:12;;;;;;;1999.90;999.90;;;;;;;3.32;53.39;101013.69;15606288;28;20133;-67
2022/01/20 08:37:46;;;;;;;1999.90;999.90;;;;;;;3.68;52.96;101030.19;15606473;28;20033;-68
2022/01/20 08:45:24;;;;;;;1999.90;999.90;;;;;;;3.85;53.88;101040.91;15552328;28;20056;-68
2022/01/20 08:52:58;;;;;;;1999.90;999.90;;;;;;;4.07;54.21;101046.09;15527345;28;20045;-68
2022/01/20 09:00:34;;;;;;;1999.90;999.90;;;;;;;4.80;52.82;101038.00;15543055;28;20423;-67
2022/01/20 09:08:12;;;;;;;1999.90;999.90;;;;;;;5.05;52.20;101034.22;15542219;28;20045;-68
2022/01/20 09:15:46;;;;;;;1999.90;999.90;;;;;;;5.42;50.67;101050.25;15540388;28;20046;-68
2022/01/20 09:23:31;;;;;;;1999.90;999.90;;;;;;;6.67;49.00;101048.28;15560877;28;20034;-68
2022/01/20 09:31:07;;;;;;;1999.90;999.90;;;;;;;5.94;50.23;101065.22;15602115;28;20041;-67
2022/01/20 09:38:41;;;;;;;1999.90;999.90;;;;;;;5.27;51.77;101081.63;15528752;28;20415;-69
2022/01/20 09:46:21;;;;;;;1999.90;999.90;;;;;;;4.68;53.59;101093.59;15539890;28;20064;-68
2022/01/20 09:54:04;;;;;;;1999.90;999.90;;;;;;;4.85;53.08;101091.31;15580592;28;20053;-69
2022/01/20 10:02:17;;;;;;;1999.90;999.90;;;;;;;4.63;53.85;101088.94;15591636;28;20046;-66
2022/01/20 10:09:51;;;;;;;1999.90;999.90;;;;;;;5.53;52.52;101100.78;15601416;28;20045;-67
2022/01/20 10:17:48;;;;;;;1999.90;999.90;;;;;;;5.38;52.03;101105.31;15608788;28;20578;-66
2022/01/20 10:25:27;;;;;;;1999.90;999.90;;;;;;;5.07;52.02;101120.50;15565380;28;20046;-66
2022/01/20 10:33:05;;;;;;;1999.90;999.90;;;;;;;5.39;52.51;101111.69;15540547;28;20038;-66
2022/01/20 10:40:49;;;;;;;1999.90;999.90;;;;;;;4.91;54.41;101109.53;15526320;28;20042;-69
2022/01/20 10:48:25;;;;;;;1999.90;999.90;;;;;;;5.33;53.26;101124.75;15573570;28;20060;-67
2022/01/20 10:56:05;;;;;;;1999.90;999.90;;;;;;;5.92;52.60;101126.47;15536822;28;20045;-68
2022/01/20 11:03:39;;;;;;;1999.90;999.90;;;;;;;6.53;50.60;101111.13;15571953;28;20100;-68
2022/01/20 11:11:15;;;;;;;1999.90;999.90;;;;;;;5.26;52.46;101110.41;15565761;28;20034;-68
2022/01/20 11:18:54;;;;;;;1999.90;999.90;;;;;;;6.49;50.68;101096.19;15570159;28;20391;-68
2022/01/20 11:26:27;;;;;;;1999.90;999.90;;;;;;;8.48;44.95;101085.41;15558003;28;20563;-66
2022/01/20 11:34:16;;;;;;;1999.90;999.90;;;;;;;7.76;45.75;101080.38;15557714;28;20050;-61
2022/01/20 11:41:49;;;;;;;1999.90;999.90;;;;;;;7.62;45.29;101102.56;15604649;28;20049;-63
2022/01/20 11:49:36;;;;;;;1999.90;999.90;;;;;;;7.21;46.30;101088.53;15578187;28;20046;-66
2022/01/20 11:57:11;;;;;;;1999.90;999.90;;;;;;;7.73;45.05;101095.72;15536693;28;20049;-66
2022/01/20 12:04:47;;;;;;;1999.90;999.90;;;;;;;9.88;40.88;101103.81;15567688;28;20041;-67
2022/01/20 12:12:26;;;;;;;1999.90;999.90;;;;;;;10.67;39.20;101094.66;15565487;28;20073;-65
2022/01/20 12:20:00;;;;;;;1999.90;999.90;;;;;;;6.73;45.87;101080.34;15586613;28;20042;-68
2022/01/20 12:27:36;;;;;;;1999.90;999.90;;;;;;;7.82;44.75;101118.06;15571510;28;20054;-67
2022/01/20 12:35:10;;;;;;;1999.90;999.90;;;;;;;6.57;47.29;101120.50;15584182;28;20050;-67
2022/01/20 12:42:43;;;;;;;1999.90;999.90;;;;;;;5.45;48.66;101119.66;15549359;28;20056;-67
2022/01/20 12:50:17;;;;;;;1999.90;999.90;;;;;;;5.74;49.46;101096.72;15594987;28;20045;-65
2022/01/20 12:57:58;;;;;;;1999.90;999.90;;;;;;;5.30;50.31;101094.03;15558449;28;20399;-67
2022/01/20 13:05:33;;;;;;;1999.90;999.90;;;;;;;7.08;47.69;101075.38;15541165;28;20054;-65
2022/01/20 13:13:17;;;;;;;1999.90;999.90;;;;;;;5.66;49.88;101066.88;15557813;28;20046;-67
2022/01/20 13:20:59;;;;;;;1999.90;999.90;;;;;;;5.18;55.28;101086.09;15525743;28;20041;-65
2022/01/20 13:28:34;;;;;;;1999.90;999.90;;;;;;;5.12;55.99;101090.88;15558840;28;20096;-65
2022/01/20 13:36:10;;;;;;;1999.90;999.90;;;;;;;4.70;58.20;101093.34;15550496;28;20046;-66
2022/01/20 13:51:40;;;;;;;1999.90;999.90;;;;;;;6.02;53.44;101070.97;15573784;28;20054;-64
2022/01/20 13:59:12;;;;;;;1999.90;999.90;;;;;;;7.96;48.54;101079.19;15577939;28;20046;-66
2022/01/20 14:06:46;;;;;;;1999.90;999.90;;;;;;;7.57;49.68;101072.09;15567047;28;20427;-65
2022/01/20 14:14:19;;;;;;;1999.90;999.90;;;;;;;5.79;53.88;101068.97;15586082;28;20119;-66
2022/01/20 14:21:53;;;;;;;1999.90;999.90;;;;;;;5.35;54.98;101089.31;15572423;28;20038;-66
2022/01/20 14:29:26;;;;;;;1999.90;999.90;;;;;;;4.61;57.10;101096.69;15589729;28;20077;-66
2022/01/20 14:37:00;;;;;;;1999.90;999.90;;;;;;;4.56;60.36;101102.22;15582049;28;20049;-65
2022/01/20 14:44:34;;;;;;;1999.90;999.90;;;;;;;4.58;60.70;101108.31;15565359;28;20042;-66
2022/01/20 14:52:08;;;;;;;1999.90;999.90;;;;;;;2.70;75.21;101154.47;15547232;28;20446;-66
2022/01/20 14:59:42;;;;;;;1999.90;999.90;;;;;;;2.69;75.42;101117.81;15576937;28;20041;-66
2022/01/20 15:07:16;;;;;;;1999.90;999.90;;;;;;;2.46;74.19;101116.38;15557357;28;20450;-65
2022/01/20 15:14:50;;;;;;;1999.90;999.90;;;;;;;2.45;73.64;101113.91;15575832;28;20391;-65
2022/01/20 15:22:24;;;;;;;1999.90;999.90;;;;;;;2.43;72.83;101138.97;15535552;28;20065;-67
2022/01/20 15:29:58;;;;;;;1999.90;999.90;;;;;;;2.62;72.11;101150.34;15578441;28;20067;-64
2022/01/20 15:37:32;;;;;;;1999.90;999.90;;;;;;;2.42;71.74;101159.34;15590704;28;20068;-65
2022/01/20 15:45:08;;;;;;;1999.90;999.90;;;;;;;2.38;72.01;101149.09;15545822;28;20050;-65
2022/01/20 15:52:42;;;;;;;1999.90;999.90;;;;;;;2.51;70.86;101148.63;15563585;28;20050;-65
2022/01/20 16:00:16;;;;;;;1999.90;999.90;;;;;;;2.45;68.77;101155.22;15576483;28;20037;-66
2022/01/20 16:07:50;;;;;;;1999.90;999.90;;;;;;;2.43;69.07;101165.69;15595232;28;20414;-64
2022/01/20 16:15:25;;;;;;;1999.90;999.90;;;;;;;2.24;69.19;101165.28;15567302;28;20088;-66
2022/01/20 16:22:59;;;;;;;1999.90;999.90;;;;;;;2.19;67.91;101170.75;15573525;28;20132;-65
2022/01/20 16:30:32;;;;;;;1999.90;999.90;;;;;;;2.24;66.46;101185.41;15568692;28;20520;-66
2022/01/20 16:38:06;;;;;;;1999.90;999.90;;;;;;;2.27;65.58;101197.78;15586248;28;20060;-58
2022/01/20 16:45:40;;;;;;;1999.90;999.90;;;;;;;2.44;64.23;101205.91;15597760;28;20149;-65
2022/01/20 16:53:14;;;;;;;1999.90;999.90;;;;;;;2.59;63.45;101208.72;15586531;28;20128;-65
2022/01/20 17:00:47;;;;;;;1999.90;999.90;;;;;;;2.30;63.98;101206.38;15601097;28;20053;-66
2022/01/20 17:08:22;;;;;;;1999.90;999.90;;;;;;;2.37;64.21;101239.16;15547983;28;20398;-66
2022/01/20 17:15:54;;;;;;;1999.90;999.90;;;;;;;2.11;64.22;101265.72;15578656;28;20053;-65
2022/01/20 17:23:30;;;;;;;1999.90;999.90;;;;;;;2.22;63.72;101269.38;15589095;28;20033;-65
2022/01/20 17:31:03;;;;;;;1999.90;999.90;;;;;;;2.36;63.12;101287.09;15581808;28;20160;-65
2022/01/20 17:38:37;;;;;;;1999.90;999.90;;;;;;;2.21;63.20;101304.34;15579331;28;20662;-65
2022/01/20 17:46:10;;;;;;;1999.90;999.90;;;;;;;2.06;63.48;101295.13;15559044;28;20140;-65
2022/01/20 17:53:44;;;;;;;1999.90;999.90;;;;;;;2.49;62.28;101294.06;15522335;28;20045;-65
2022/01/20 18:01:17;;;;;;;1999.90;999.90;;;;;;;2.19;61.66;101311.19;15520944;28;20045;-65
2022/01/20 18:08:51;;;;;;;1999.90;999.90;;;;;;;2.40;61.56;101332.31;15537338;28;20042;-65
2022/01/20 18:16:23;;;;;;;1999.90;999.90;;;;;;;2.29;60.99;101339.66;15521239;28;20081;-59
2022/01/20 18:23:57;;;;;;;1999.90;999.90;;;;;;;2.81;60.48;101373.91;15533064;28;20077;-68
2022/01/20 18:31:30;;;;;;;1999.90;999.90;;;;;;;2.94;60.33;101381.75;15599927;28;20049;-62
2022/01/20 18:39:04;;;;;;;1999.90;999.90;;;;;;;2.47;62.83;101392.69;15565881;28;20045;-64
2022/01/20 18:46:37;;;;;;;1999.90;999.90;;;;;;;2.51;64.20;101421.38;15590459;28;20100;-62
2022/01/20 18:54:11;;;;;;;1999.90;999.90;;;;;;;2.88;64.24;101448.97;15565612;28;20052;-67
2022/01/20 19:01:44;;;;;;;1999.90;999.90;;;;;;;2.61;65.74;101438.00;15518811;28;20038;-66
2022/01/20 19:09:18;;;;;;;1999.90;999.90;;;;;;;2.67;65.39;101463.66;15498612;28;20037;-67
2022/01/20 19:16:51;;;;;;;1999.90;999.90;;;;;;;2.71;64.65;101460.13;15577371;28;20053;-67
2022/01/20 19:24:25;;;;;;;1999.90;999.90;;;;;;;2.69;63.17;101478.84;15546581;28;20046;-64
2022/01/20 19:31:58;;;;;;;1999.90;999.90;;;;;;;2.42;66.11;101511.94;15582550;28;20112;-65
2022/01/20 19:39:32;;;;;;;1999.90;999.90;;;;;;;2.47;65.58;101509.22;15547633;28;20450;-68
2022/01/20 19:47:07;;;;;;;1999.90;999.90;;;;;;;2.26;65.65;101529.38;15567785;28;20315;-67
2022/01/20 19:54:41;;;;;;;1999.90;999.90;;;;;;;2.50;65.12;101536.28;15531296;28;20049;-67
2022/01/20 20:02:16;;;;;;;1999.90;999.90;;;;;;;2.18;69.00;101549.09;15547808;28;20049;-66
2022/01/20 20:09:50;;;;;;;1999.90;999.90;;;;;;;2.22;70.85;101564.03;15557709;28;20120;-67
2022/01/20 20:17:23;;;;;;;1999.90;999.90;;;;;;;2.13;70.73;101571.06;15582233;28;20045;-65
2022/01/20 20:24:57;;;;;;;1999.90;999.90;;;;;;;2.45;71.03;101588.53;15625124;28;20042;-68
2022/01/20 20:32:30;;;;;;;1999.90;999.90;;;;;;;1.81;74.32;101566.25;15629580;28;20056;-69
2022/01/20 20:40:06;;;;;;;1999.90;999.90;;;;;;;1.49;73.84;101576.22;15626356;28;20049;-67
2022/01/20 20:47:39;;;;;;;1999.90;999.90;;;;;;;1.48;71.45;101591.91;15624257;28;20049;-68
2022/01/20 20:55:15;;;;;;;1999.90;999.90;;;;;;;1.18;72.59;101606.00;15589835;28;20103;-66
2022/01/20 21:02:48;;;;;;;1999.90;999.90;;;;;;;1.09;71.73;101611.06;15604008;28;20403;-64
2022/01/20 21:10:22;;;;;;;1999.90;999.90;;;;;;;1.00;71.82;101633.69;15603715;28;20124;-66
2022/01/20 21:17:55;;;;;;;1999.90;999.90;;;;;;;0.69;72.35;101637.78;15620057;28;20061;-67
2022/01/20 21:25:29;;;;;;;1999.90;999.90;;;;;;;0.82;71.48;101649.31;15530370;28;20049;-67
2022/01/20 21:33:02;;;;;;;1999.90;999.90;;;;;;;0.87;71.29;101645.84;15540138;28;20038;-64
2022/01/20 21:40:37;;;;;;;1999.90;999.90;;;;;;;0.65;71.04;101650.34;15571168;28;20033;-67
2022/01/20 21:48:10;;;;;;;1999.90;999.90;;;;;;;0.63;70.86;101658.00;15539523;28;20042;-67
2022/01/20 21:55:46;;;;;;;1999.90;999.90;;;;;;;0.66;70.65;101663.00;15532984;28;20057;-66
2022/01/20 22:03:20;;;;;;;1999.90;999.90;;;;;;;0.42;70.99;101668.56;15582541;28;20041;-64
2022/01/20 22:10:54;;;;;;;;;;;;;;;0.73;69.76;101680.16;15591994;28;20099;-64
2022/01/20 22:18:29;;;;;;;1999.90;999.90;;;;;;;0.67;70.25;101697.63;15596776;28;19928;-64
2022/01/20 22:26:04;;;;;;;1999.90;999.90;;;;;;;0.76;69.66;101710.75;15616205;28;20506;-64
2022/01/20 22:33:38;;;;;;;1999.90;999.90;;;;;;;1.26;68.08;101718.31;15559656;28;20491;-63
2022/01/20 22:41:12;;;;;;;1999.90;999.90;;;;;;;1.21;67.66;101725.63;15574077;28;20056;-65
2022/01/20 22:48:46;;;;;;;1999.90;999.90;;;;;;;1.09;67.05;101740.25;15548316;28;20038;-64
2022/01/20 22:56:22;;;;;;;1999.90;999.90;;;;;;;1.59;65.42;101744.22;15575852;28;20129;-65
2022/01/20 23:03:54;;;;;;;1999.90;999.90;;;;;;;1.31;64.77;101731.31;15600823;28;20038;-64
2022/01/20 23:11:28;;;;;;;1999.90;999.90;;;;;;;1.59;63.42;101746.97;15618990;28;20065;-63
2022/01/20 23:20:47;;;;;;;1999.90;999.90;;;;;;;1.43;62.92;101752.19;15670959;22;20045;-70
2022/01/20 23:26:57;;;;;;;1999.90;999.90;;;;;;;1.36;61.79;101767.19;15634774;28;20041;-71
2022/01/20 23:34:29;;;;;;;1999.90;999.90;;;;;;;1.33;60.35;101776.75;15617261;28;20045;-71
2022/01/20 23:42:14;;;;;;;1999.90;999.90;;;;;;;1.30;59.87;101791.00;15634900;28;20461;-72
2022/01/20 23:49:47;;;;;;;1999.90;999.90;;;;;;;1.15;58.83;101793.44;15617557;28;20055;-73
2022/01/20 23:57:20;;;;;;;1999.90;999.90;;;;;;;1.29;58.70;101794.81;15613897;28;20488;-72
